sensor_id;sensor_type;location;lat;lon;timestamp;temperature;humidity
24374;DHT22;12498;50.880;12.096;2023-04-15T00:00:40;7.50;99.90
24374;DHT22;12498;50.880;12.096;2023-04-15T00:03:06;7.50;99.90
24374;DHT22;12498;50.880;12.096;2023-04-15T00:05:32;7.50;99.90
24374;DHT22;12498;50.880;12.096;2023-04-15T00:07:59;7.50;99.90
24374;DHT22;12498;50.880;12.096;2023-04-15T00:10:26;7.50;99.90
24374;DHT22;12498;50.880;12.096;2023-04-15T00:12:52;7.50;99.90
24374;DHT22;12498;50.880;12.096;2023-04-15T00:15:18;7.80;99.90
24374;DHT22;12498;50.880;12.096;2023-04-15T00:17:44;7.70;99.90
24374;DHT22;12498;50.880;12.096;2023-04-15T00:20:10;7.70;99.90
24374;DHT22;12498;50.880;12.096;2023-04-15T00:22:36;7.50;99.90
24374;DHT22;12498;50.880;12.096;2023-04-15T00:25:02;7.40;99.90
24374;DHT22;12498;50.880;12.096;2023-04-15T00:27:28;7.40;99.90
24374;DHT22;12498;50.880;12.096;2023-04-15T00:29:54;7.30;99.90
24374;DHT22;12498;50.880;12.096;2023-04-15T00:32:20;7.40;99.90
24374;DHT22;12498;50.880;12.096;2023-04-15T00:34:46;7.30;99.90
24374;DHT22;12498;50.880;12.096;2023-04-15T00:37:12;7.30;99.90
24374;DHT22;12498;50.880;12.096;2023-04-15T00:39:37;7.40;99.90
24374;DHT22;12498;50.880;12.096;2023-04-15T00:42:04;7.60;99.90
24374;DHT22;12498;50.880;12.096;2023-04-15T00:44:30;8.00;99.90
24374;DHT22;12498;50.880;12.096;2023-04-15T00:46:56;7.60;99.90
24374;DHT22;12498;50.880;12.096;2023-04-15T00:49:22;7.20;99.90
24374;DHT22;12498;50.880;12.096;2023-04-15T00:51:49;7.40;99.90
24374;DHT22;12498;50.880;12.096;2023-04-15T00:54:14;7.80;99.90
24374;DHT22;12498;50.880;12.096;2023-04-15T00:56:41;7.30;99.90
24374;DHT22;12498;50.880;12.096;2023-04-15T00:59:07;7.70;99.90
24374;DHT22;12498;50.880;12.096;2023-04-15T01:01:34;7.30;99.90
24374;DHT22;12498;50.880;12.096;2023-04-15T01:04:01;7.20;99.90
24374;DHT22;12498;50.880;12.096;2023-04-15T01:06:26;7.20;99.90
24374;DHT22;12498;50.880;12.096;2023-04-15T01:08:53;7.70;99.90
24374;DHT22;12498;50.880;12.096;2023-04-15T01:11:20;7.20;99.90
24374;DHT22;12498;50.880;12.096;2023-04-15T01:13:49;7.20;99.90
24374;DHT22;12498;50.880;12.096;2023-04-15T01:16:15;7.20;99.90
24374;DHT22;12498;50.880;12.096;2023-04-15T01:18:41;7.10;99.90
24374;DHT22;12498;50.880;12.096;2023-04-15T01:21:07;7.60;99.90
24374;DHT22;12498;50.880;12.096;2023-04-15T01:23:35;7.20;99.90
24374;DHT22;12498;50.880;12.096;2023-04-15T01:26:02;7.30;99.90
24374;DHT22;12498;50.880;12.096;2023-04-15T01:28:28;7.10;99.90
24374;DHT22;12498;50.880;12.096;2023-04-15T01:31:11;7.10;99.90
24374;DHT22;12498;50.880;12.096;2023-04-15T01:33:38;7.20;99.90
24374;DHT22;12498;50.880;12.096;2023-04-15T01:36:05;7.00;99.90
24374;DHT22;12498;50.880;12.096;2023-04-15T01:38:33;7.10;99.90
24374;DHT22;12498;50.880;12.096;2023-04-15T01:40:59;7.10;99.90
24374;DHT22;12498;50.880;12.096;2023-04-15T01:43:25;7.20;99.90
24374;DHT22;12498;50.880;12.096;2023-04-15T01:45:51;7.20;99.90
24374;DHT22;12498;50.880;12.096;2023-04-15T01:48:16;7.00;99.90
24374;DHT22;12498;50.880;12.096;2023-04-15T01:50:42;7.30;99.90
24374;DHT22;12498;50.880;12.096;2023-04-15T01:53:08;7.40;99.90
24374;DHT22;12498;50.880;12.096;2023-04-15T01:55:34;7.00;99.90
24374;DHT22;12498;50.880;12.096;2023-04-15T01:57:59;7.50;99.90
24374;DHT22;12498;50.880;12.096;2023-04-15T02:00:25;7.00;99.90
24374;DHT22;12498;50.880;12.096;2023-04-15T02:02:51;7.30;99.90
24374;DHT22;12498;50.880;12.096;2023-04-15T02:05:17;7.40;99.90
24374;DHT22;12498;50.880;12.096;2023-04-15T02:07:43;7.30;99.90
24374;DHT22;12498;50.880;12.096;2023-04-15T02:10:09;7.50;99.90
24374;DHT22;12498;50.880;12.096;2023-04-15T02:12:35;7.10;99.90
24374;DHT22;12498;50.880;12.096;2023-04-15T02:15:01;7.00;99.90
24374;DHT22;12498;50.880;12.096;2023-04-15T02:17:26;7.20;99.90
24374;DHT22;12498;50.880;12.096;2023-04-15T02:19:54;7.30;99.90
24374;DHT22;12498;50.880;12.096;2023-04-15T02:22:20;7.10;99.90
24374;DHT22;12498;50.880;12.096;2023-04-15T02:24:46;7.10;99.90
24374;DHT22;12498;50.880;12.096;2023-04-15T02:27:16;7.40;99.90
24374;DHT22;12498;50.880;12.096;2023-04-15T02:29:43;7.40;99.90
24374;DHT22;12498;50.880;12.096;2023-04-15T02:34:36;7.00;99.90
24374;DHT22;12498;50.880;12.096;2023-04-15T02:37:06;6.90;99.90
24374;DHT22;12498;50.880;12.096;2023-04-15T02:39:32;7.00;99.90
24374;DHT22;12498;50.880;12.096;2023-04-15T02:41:58;6.80;99.90
24374;DHT22;12498;50.880;12.096;2023-04-15T02:44:25;7.30;99.90
24374;DHT22;12498;50.880;12.096;2023-04-15T02:46:52;7.30;99.90
24374;DHT22;12498;50.880;12.096;2023-04-15T02:49:19;7.00;99.90
24374;DHT22;12498;50.880;12.096;2023-04-15T02:51:45;7.00;99.90
24374;DHT22;12498;50.880;12.096;2023-04-15T02:54:18;6.90;99.90
24374;DHT22;12498;50.880;12.096;2023-04-15T02:56:44;6.90;99.90
24374;DHT22;12498;50.880;12.096;2023-04-15T02:59:10;7.10;99.90
24374;DHT22;12498;50.880;12.096;2023-04-15T03:01:36;7.30;99.90
24374;DHT22;12498;50.880;12.096;2023-04-15T03:04:02;7.30;99.90
24374;DHT22;12498;50.880;12.096;2023-04-15T03:06:27;7.10;99.90
24374;DHT22;12498;50.880;12.096;2023-04-15T03:08:53;6.90;99.90
24374;DHT22;12498;50.880;12.096;2023-04-15T03:11:19;7.40;99.90
24374;DHT22;12498;50.880;12.096;2023-04-15T03:13:45;6.90;99.90
24374;DHT22;12498;50.880;12.096;2023-04-15T03:16:11;6.80;99.90
24374;DHT22;12498;50.880;12.096;2023-04-15T03:18:37;6.80;99.90
24374;DHT22;12498;50.880;12.096;2023-04-15T03:21:03;6.80;99.90
24374;DHT22;12498;50.880;12.096;2023-04-15T03:23:30;7.20;99.90
24374;DHT22;12498;50.880;12.096;2023-04-15T03:25:56;6.70;99.90
24374;DHT22;12498;50.880;12.096;2023-04-15T03:28:23;6.60;99.90
24374;DHT22;12498;50.880;12.096;2023-04-15T03:30:49;6.70;99.90
24374;DHT22;12498;50.880;12.096;2023-04-15T03:33:15;6.70;99.90
24374;DHT22;12498;50.880;12.096;2023-04-15T03:35:41;6.90;99.90
24374;DHT22;12498;50.880;12.096;2023-04-15T03:38:06;7.00;99.90
24374;DHT22;12498;50.880;12.096;2023-04-15T03:40:32;6.90;99.90
24374;DHT22;12498;50.880;12.096;2023-04-15T03:42:57;6.70;99.90
24374;DHT22;12498;50.880;12.096;2023-04-15T03:45:23;6.70;99.90
24374;DHT22;12498;50.880;12.096;2023-04-15T03:47:49;6.70;99.90
24374;DHT22;12498;50.880;12.096;2023-04-15T03:50:14;7.00;99.90
24374;DHT22;12498;50.880;12.096;2023-04-15T03:52:40;6.70;99.90
24374;DHT22;12498;50.880;12.096;2023-04-15T03:55:06;7.00;99.90
24374;DHT22;12498;50.880;12.096;2023-04-15T03:57:33;6.70;99.90
24374;DHT22;12498;50.880;12.096;2023-04-15T04:00:03;6.80;99.90
24374;DHT22;12498;50.880;12.096;2023-04-15T04:02:29;6.80;99.90
24374;DHT22;12498;50.880;12.096;2023-04-15T04:04:54;6.90;99.90
24374;DHT22;12498;50.880;12.096;2023-04-15T04:07:22;7.30;99.90
24374;DHT22;12498;50.880;12.096;2023-04-15T04:09:48;7.00;99.90
24374;DHT22;12498;50.880;12.096;2023-04-15T04:12:13;6.70;99.90
24374;DHT22;12498;50.880;12.096;2023-04-15T04:14:39;7.00;99.90
24374;DHT22;12498;50.880;12.096;2023-04-15T04:17:05;7.20;99.90
24374;DHT22;12498;50.880;12.096;2023-04-15T04:19:31;6.60;99.90
24374;DHT22;12498;50.880;12.096;2023-04-15T04:21:56;7.00;99.90
24374;DHT22;12498;50.880;12.096;2023-04-15T04:24:22;6.80;99.90
24374;DHT22;12498;50.880;12.096;2023-04-15T04:26:47;7.10;99.90
24374;DHT22;12498;50.880;12.096;2023-04-15T04:29:13;7.10;99.90
24374;DHT22;12498;50.880;12.096;2023-04-15T04:31:38;6.80;99.90
24374;DHT22;12498;50.880;12.096;2023-04-15T04:34:04;7.00;99.90
24374;DHT22;12498;50.880;12.096;2023-04-15T04:36:30;7.10;99.90
24374;DHT22;12498;50.880;12.096;2023-04-15T04:38:56;6.80;99.90
24374;DHT22;12498;50.880;12.096;2023-04-15T04:41:21;6.70;99.90
24374;DHT22;12498;50.880;12.096;2023-04-15T04:43:47;7.10;99.90
24374;DHT22;12498;50.880;12.096;2023-04-15T04:46:13;7.00;99.90
24374;DHT22;12498;50.880;12.096;2023-04-15T04:48:39;6.80;99.90
24374;DHT22;12498;50.880;12.096;2023-04-15T04:51:05;6.70;99.90
24374;DHT22;12498;50.880;12.096;2023-04-15T04:53:32;6.60;99.90
24374;DHT22;12498;50.880;12.096;2023-04-15T04:55:57;6.90;99.90
24374;DHT22;12498;50.880;12.096;2023-04-15T04:58:23;6.90;99.90
24374;DHT22;12498;50.880;12.096;2023-04-15T05:00:48;6.80;99.90
24374;DHT22;12498;50.880;12.096;2023-04-15T05:03:14;6.70;99.90
24374;DHT22;12498;50.880;12.096;2023-04-15T05:05:40;7.20;99.90
24374;DHT22;12498;50.880;12.096;2023-04-15T05:08:06;6.90;99.90
24374;DHT22;12498;50.880;12.096;2023-04-15T05:10:32;7.10;99.90
24374;DHT22;12498;50.880;12.096;2023-04-15T05:12:57;7.20;99.90
24374;DHT22;12498;50.880;12.096;2023-04-15T05:15:23;6.90;99.90
24374;DHT22;12498;50.880;12.096;2023-04-15T05:17:49;7.10;99.90
24374;DHT22;12498;50.880;12.096;2023-04-15T05:20:16;7.20;99.90
24374;DHT22;12498;50.880;12.096;2023-04-15T05:22:42;6.90;99.90
24374;DHT22;12498;50.880;12.096;2023-04-15T05:25:07;7.10;99.90
24374;DHT22;12498;50.880;12.096;2023-04-15T05:27:34;6.90;99.90
24374;DHT22;12498;50.880;12.096;2023-04-15T05:29:59;7.00;99.90
24374;DHT22;12498;50.880;12.096;2023-04-15T05:32:25;7.10;99.90
24374;DHT22;12498;50.880;12.096;2023-04-15T05:34:51;6.80;99.90
24374;DHT22;12498;50.880;12.096;2023-04-15T05:37:17;7.10;99.90
24374;DHT22;12498;50.880;12.096;2023-04-15T05:39:45;7.00;99.90
24374;DHT22;12498;50.880;12.096;2023-04-15T05:42:11;7.20;99.90
24374;DHT22;12498;50.880;12.096;2023-04-15T05:44:36;7.20;99.90
24374;DHT22;12498;50.880;12.096;2023-04-15T05:47:02;7.00;99.90
24374;DHT22;12498;50.880;12.096;2023-04-15T05:49:28;7.20;99.90
24374;DHT22;12498;50.880;12.096;2023-04-15T05:51:54;7.60;99.90
24374;DHT22;12498;50.880;12.096;2023-04-15T05:54:19;7.40;99.90
24374;DHT22;12498;50.880;12.096;2023-04-15T05:56:47;7.30;99.90
24374;DHT22;12498;50.880;12.096;2023-04-15T05:59:13;7.70;99.90
24374;DHT22;12498;50.880;12.096;2023-04-15T06:01:39;7.50;99.90
24374;DHT22;12498;50.880;12.096;2023-04-15T06:04:04;7.60;99.90
24374;DHT22;12498;50.880;12.096;2023-04-15T06:06:30;7.70;99.90
24374;DHT22;12498;50.880;12.096;2023-04-15T06:08:57;7.60;99.90
24374;DHT22;12498;50.880;12.096;2023-04-15T06:11:22;7.50;99.90
24374;DHT22;12498;50.880;12.096;2023-04-15T06:13:48;7.30;99.90
24374;DHT22;12498;50.880;12.096;2023-04-15T06:16:14;7.20;99.90
24374;DHT22;12498;50.880;12.096;2023-04-15T06:18:40;7.10;99.90
24374;DHT22;12498;50.880;12.096;2023-04-15T06:21:05;7.10;99.90
24374;DHT22;12498;50.880;12.096;2023-04-15T06:23:34;7.20;99.90
24374;DHT22;12498;50.880;12.096;2023-04-15T06:26:00;7.20;99.90
24374;DHT22;12498;50.880;12.096;2023-04-15T06:28:26;7.20;99.90
24374;DHT22;12498;50.880;12.096;2023-04-15T06:30:52;7.20;99.90
24374;DHT22;12498;50.880;12.096;2023-04-15T06:33:18;7.20;99.90
24374;DHT22;12498;50.880;12.096;2023-04-15T06:35:44;7.50;99.90
24374;DHT22;12498;50.880;12.096;2023-04-15T06:38:10;7.50;99.90
24374;DHT22;12498;50.880;12.096;2023-04-15T06:40:35;7.10;99.90
24374;DHT22;12498;50.880;12.096;2023-04-15T06:43:01;7.00;99.90
24374;DHT22;12498;50.880;12.096;2023-04-15T06:45:26;7.20;99.90
24374;DHT22;12498;50.880;12.096;2023-04-15T06:47:52;7.30;99.90
24374;DHT22;12498;50.880;12.096;2023-04-15T06:50:18;7.20;99.90
24374;DHT22;12498;50.880;12.096;2023-04-15T06:52:43;7.30;99.90
24374;DHT22;12498;50.880;12.096;2023-04-15T06:55:09;7.10;99.90
24374;DHT22;12498;50.880;12.096;2023-04-15T06:57:35;7.20;99.90
24374;DHT22;12498;50.880;12.096;2023-04-15T07:00:01;7.00;99.90
24374;DHT22;12498;50.880;12.096;2023-04-15T07:02:26;7.10;99.90
24374;DHT22;12498;50.880;12.096;2023-04-15T07:04:52;7.40;99.90
24374;DHT22;12498;50.880;12.096;2023-04-15T07:07:17;7.10;99.90
24374;DHT22;12498;50.880;12.096;2023-04-15T07:09:43;7.10;99.90
24374;DHT22;12498;50.880;12.096;2023-04-15T07:12:09;7.50;99.90
24374;DHT22;12498;50.880;12.096;2023-04-15T07:14:34;7.20;99.90
24374;DHT22;12498;50.880;12.096;2023-04-15T07:17:01;7.10;99.90
24374;DHT22;12498;50.880;12.096;2023-04-15T07:19:27;7.20;99.90
24374;DHT22;12498;50.880;12.096;2023-04-15T07:21:52;7.50;99.90
24374;DHT22;12498;50.880;12.096;2023-04-15T07:24:18;7.20;99.90
24374;DHT22;12498;50.880;12.096;2023-04-15T07:26:45;7.50;99.90
24374;DHT22;12498;50.880;12.096;2023-04-15T07:29:10;7.20;99.90
24374;DHT22;12498;50.880;12.096;2023-04-15T07:31:36;7.60;99.90
24374;DHT22;12498;50.880;12.096;2023-04-15T07:34:02;7.20;99.90
24374;DHT22;12498;50.880;12.096;2023-04-15T07:36:29;7.30;99.90
24374;DHT22;12498;50.880;12.096;2023-04-15T07:38:55;7.70;99.90
24374;DHT22;12498;50.880;12.096;2023-04-15T07:41:22;7.70;99.90
24374;DHT22;12498;50.880;12.096;2023-04-15T07:43:48;7.70;99.90
24374;DHT22;12498;50.880;12.096;2023-04-15T07:46:14;7.70;99.90
24374;DHT22;12498;50.880;12.096;2023-04-15T07:48:40;7.40;99.90
24374;DHT22;12498;50.880;12.096;2023-04-15T07:51:07;7.70;99.90
24374;DHT22;12498;50.880;12.096;2023-04-15T07:53:33;7.30;99.90
24374;DHT22;12498;50.880;12.096;2023-04-15T07:55:58;7.30;99.90
24374;DHT22;12498;50.880;12.096;2023-04-15T07:58:24;7.20;99.90
24374;DHT22;12498;50.880;12.096;2023-04-15T08:00:50;7.50;99.90
24374;DHT22;12498;50.880;12.096;2023-04-15T08:03:16;7.30;99.90
24374;DHT22;12498;50.880;12.096;2023-04-15T08:05:41;7.40;99.90
24374;DHT22;12498;50.880;12.096;2023-04-15T08:08:07;7.40;99.90
24374;DHT22;12498;50.880;12.096;2023-04-15T08:10:33;7.60;99.90
24374;DHT22;12498;50.880;12.096;2023-04-15T08:12:59;7.30;99.90
24374;DHT22;12498;50.880;12.096;2023-04-15T08:15:25;7.60;99.90
24374;DHT22;12498;50.880;12.096;2023-04-15T08:17:51;7.80;99.90
24374;DHT22;12498;50.880;12.096;2023-04-15T08:20:17;7.70;99.90
24374;DHT22;12498;50.880;12.096;2023-04-15T08:22:46;7.50;99.90
24374;DHT22;12498;50.880;12.096;2023-04-15T08:25:16;7.60;99.90
24374;DHT22;12498;50.880;12.096;2023-04-15T08:27:41;7.60;99.90
24374;DHT22;12498;50.880;12.096;2023-04-15T08:30:07;7.50;99.90
24374;DHT22;12498;50.880;12.096;2023-04-15T08:32:33;7.60;99.90
24374;DHT22;12498;50.880;12.096;2023-04-15T08:34:59;7.70;99.90
24374;DHT22;12498;50.880;12.096;2023-04-15T08:37:25;8.00;99.90
24374;DHT22;12498;50.880;12.096;2023-04-15T08:39:51;7.80;99.90
24374;DHT22;12498;50.880;12.096;2023-04-15T08:42:20;8.10;99.90
24374;DHT22;12498;50.880;12.096;2023-04-15T08:44:48;7.70;99.90
24374;DHT22;12498;50.880;12.096;2023-04-15T08:47:15;7.70;99.90
24374;DHT22;12498;50.880;12.096;2023-04-15T08:49:42;7.80;99.90
24374;DHT22;12498;50.880;12.096;2023-04-15T08:52:08;8.20;99.90
24374;DHT22;12498;50.880;12.096;2023-04-15T08:54:34;8.10;99.90
24374;DHT22;12498;50.880;12.096;2023-04-15T08:57:00;7.80;99.90
24374;DHT22;12498;50.880;12.096;2023-04-15T08:59:30;7.80;99.90
24374;DHT22;12498;50.880;12.096;2023-04-15T09:01:57;8.00;99.90
24374;DHT22;12498;50.880;12.096;2023-04-15T09:04:23;8.20;99.90
24374;DHT22;12498;50.880;12.096;2023-04-15T09:06:48;8.10;99.90
24374;DHT22;12498;50.880;12.096;2023-04-15T09:09:14;8.30;99.90
24374;DHT22;12498;50.880;12.096;2023-04-15T09:11:40;8.10;99.90
24374;DHT22;12498;50.880;12.096;2023-04-15T09:14:06;8.40;99.90
24374;DHT22;12498;50.880;12.096;2023-04-15T09:16:55;8.50;99.90
24374;DHT22;12498;50.880;12.096;2023-04-15T09:19:22;8.20;99.90
24374;DHT22;12498;50.880;12.096;2023-04-15T09:24:13;8.20;99.90
24374;DHT22;12498;50.880;12.096;2023-04-15T09:26:39;8.20;99.90
24374;DHT22;12498;50.880;12.096;2023-04-15T09:29:07;8.10;99.90
24374;DHT22;12498;50.880;12.096;2023-04-15T09:31:34;8.10;99.90
24374;DHT22;12498;50.880;12.096;2023-04-15T09:34:00;8.10;99.90
24374;DHT22;12498;50.880;12.096;2023-04-15T09:36:26;8.10;99.90
24374;DHT22;12498;50.880;12.096;2023-04-15T09:38:59;8.10;99.90
24374;DHT22;12498;50.880;12.096;2023-04-15T09:41:25;8.20;99.90
24374;DHT22;12498;50.880;12.096;2023-04-15T09:43:52;8.10;99.90
24374;DHT22;12498;50.880;12.096;2023-04-15T09:46:18;8.10;99.90
24374;DHT22;12498;50.880;12.096;2023-04-15T09:48:43;8.00;99.90
24374;DHT22;12498;50.880;12.096;2023-04-15T09:51:09;8.10;99.90
24374;DHT22;12498;50.880;12.096;2023-04-15T09:53:36;8.10;99.90
24374;DHT22;12498;50.880;12.096;2023-04-15T09:56:03;8.20;99.90
24374;DHT22;12498;50.880;12.096;2023-04-15T09:58:33;8.10;99.90
24374;DHT22;12498;50.880;12.096;2023-04-15T10:01:01;8.10;99.90
24374;DHT22;12498;50.880;12.096;2023-04-15T10:03:29;8.10;99.90
24374;DHT22;12498;50.880;12.096;2023-04-15T10:05:58;8.10;99.90
24374;DHT22;12498;50.880;12.096;2023-04-15T10:08:28;7.90;99.90
24374;DHT22;12498;50.880;12.096;2023-04-15T10:10:54;8.30;99.90
24374;DHT22;12498;50.880;12.096;2023-04-15T10:13:24;8.30;99.90
24374;DHT22;12498;50.880;12.096;2023-04-15T10:16:19;8.20;99.90
24374;DHT22;12498;50.880;12.096;2023-04-15T10:18:50;8.10;99.90
24374;DHT22;12498;50.880;12.096;2023-04-15T10:21:18;8.00;99.90
24374;DHT22;12498;50.880;12.096;2023-04-15T10:23:45;8.10;99.90
24374;DHT22;12498;50.880;12.096;2023-04-15T10:26:12;8.10;99.90
24374;DHT22;12498;50.880;12.096;2023-04-15T10:28:39;8.00;99.90
24374;DHT22;12498;50.880;12.096;2023-04-15T10:31:05;8.00;99.90
24374;DHT22;12498;50.880;12.096;2023-04-15T10:33:32;8.00;99.90
24374;DHT22;12498;50.880;12.096;2023-04-15T10:35:58;8.10;99.90
24374;DHT22;12498;50.880;12.096;2023-04-15T10:38:41;8.10;99.90
24374;DHT22;12498;50.880;12.096;2023-04-15T10:41:16;8.30;99.90
24374;DHT22;12498;50.880;12.096;2023-04-15T10:46:28;8.40;99.90
24374;DHT22;12498;50.880;12.096;2023-04-15T10:49:13;8.50;99.90
24374;DHT22;12498;50.880;12.096;2023-04-15T10:51:39;8.40;99.90
24374;DHT22;12498;50.880;12.096;2023-04-15T11:05:06;8.40;99.90
24374;DHT22;12498;50.880;12.096;2023-04-15T11:07:33;8.50;99.90
24374;DHT22;12498;50.880;12.096;2023-04-15T11:09:59;8.60;99.90
24374;DHT22;12498;50.880;12.096;2023-04-15T11:12:35;8.80;99.90
24374;DHT22;12498;50.880;12.096;2023-04-15T11:17:50;8.60;99.90
24374;DHT22;12498;50.880;12.096;2023-04-15T11:20:16;8.70;99.90
24374;DHT22;12498;50.880;12.096;2023-04-15T11:22:51;8.90;99.90
24374;DHT22;12498;50.880;12.096;2023-04-15T11:25:24;9.00;99.90
24374;DHT22;12498;50.880;12.096;2023-04-15T11:27:52;8.90;99.90
24374;DHT22;12498;50.880;12.096;2023-04-15T11:30:23;8.90;99.90
24374;DHT22;12498;50.880;12.096;2023-04-15T11:32:54;8.80;99.90
24374;DHT22;12498;50.880;12.096;2023-04-15T11:37:49;8.70;99.90
24374;DHT22;12498;50.880;12.096;2023-04-15T11:40:15;8.70;99.90
24374;DHT22;12498;50.880;12.096;2023-04-15T11:42:44;8.80;99.90
24374;DHT22;12498;50.880;12.096;2023-04-15T11:45:14;8.90;99.90
24374;DHT22;12498;50.880;12.096;2023-04-15T11:50:16;8.70;99.90
24374;DHT22;12498;50.880;12.096;2023-04-15T11:53:02;8.50;99.90
24374;DHT22;12498;50.880;12.096;2023-04-15T11:55:29;8.60;99.90
24374;DHT22;12498;50.880;12.096;2023-04-15T11:58:18;8.60;99.90
24374;DHT22;12498;50.880;12.096;2023-04-15T12:03:13;8.60;99.90
24374;DHT22;12498;50.880;12.096;2023-04-15T12:11:51;8.70;99.90
24374;DHT22;12498;50.880;12.096;2023-04-15T12:14:24;8.80;99.90
24374;DHT22;12498;50.880;12.096;2023-04-15T12:16:52;8.80;99.90
24374;DHT22;12498;50.880;12.096;2023-04-15T12:19:24;9.30;99.90
24374;DHT22;12498;50.880;12.096;2023-04-15T12:21:50;9.00;99.90
24374;DHT22;12498;50.880;12.096;2023-04-15T12:26:49;8.80;99.90
24374;DHT22;12498;50.880;12.096;2023-04-15T12:29:15;9.00;99.90
24374;DHT22;12498;50.880;12.096;2023-04-15T12:31:52;8.80;99.90
24374;DHT22;12498;50.880;12.096;2023-04-15T12:34:29;8.80;99.90
24374;DHT22;12498;50.880;12.096;2023-04-15T12:36:56;9.00;99.90
24374;DHT22;12498;50.880;12.096;2023-04-15T12:39:23;8.90;99.90
24374;DHT22;12498;50.880;12.096;2023-04-15T12:41:50;8.90;99.90
24374;DHT22;12498;50.880;12.096;2023-04-15T12:44:15;8.90;99.90
24374;DHT22;12498;50.880;12.096;2023-04-15T12:46:41;8.90;99.90
24374;DHT22;12498;50.880;12.096;2023-04-15T12:49:07;9.20;99.90
24374;DHT22;12498;50.880;12.096;2023-04-15T12:51:33;9.00;99.90
24374;DHT22;12498;50.880;12.096;2023-04-15T12:53:59;9.10;99.90
24374;DHT22;12498;50.880;12.096;2023-04-15T12:56:24;9.00;99.90
24374;DHT22;12498;50.880;12.096;2023-04-15T12:58:51;9.20;99.90
24374;DHT22;12498;50.880;12.096;2023-04-15T13:01:17;9.30;99.90
24374;DHT22;12498;50.880;12.096;2023-04-15T13:03:43;9.20;99.90
24374;DHT22;12498;50.880;12.096;2023-04-15T13:06:08;9.40;99.90
24374;DHT22;12498;50.880;12.096;2023-04-15T13:08:34;9.10;99.90
24374;DHT22;12498;50.880;12.096;2023-04-15T13:11:00;9.40;99.90
24374;DHT22;12498;50.880;12.096;2023-04-15T13:13:26;9.20;99.90
24374;DHT22;12498;50.880;12.096;2023-04-15T13:15:52;9.20;99.90
24374;DHT22;12498;50.880;12.096;2023-04-15T13:18:17;9.20;99.90
24374;DHT22;12498;50.880;12.096;2023-04-15T13:20:43;9.60;99.90
24374;DHT22;12498;50.880;12.096;2023-04-15T13:23:09;9.60;99.90
24374;DHT22;12498;50.880;12.096;2023-04-15T13:25:35;9.30;99.90
24374;DHT22;12498;50.880;12.096;2023-04-15T13:28:01;9.40;99.90
24374;DHT22;12498;50.880;12.096;2023-04-15T13:30:26;9.40;99.90
24374;DHT22;12498;50.880;12.096;2023-04-15T13:32:52;9.50;99.90
24374;DHT22;12498;50.880;12.096;2023-04-15T13:35:19;9.90;99.90
24374;DHT22;12498;50.880;12.096;2023-04-15T13:37:46;9.60;99.90
24374;DHT22;12498;50.880;12.096;2023-04-15T13:40:12;9.90;99.90
24374;DHT22;12498;50.880;12.096;2023-04-15T13:45:04;9.30;99.90
24374;DHT22;12498;50.880;12.096;2023-04-15T13:47:29;9.20;99.90
24374;DHT22;12498;50.880;12.096;2023-04-15T13:49:55;9.20;99.90
24374;DHT22;12498;50.880;12.096;2023-04-15T13:52:22;9.20;99.90
24374;DHT22;12498;50.880;12.096;2023-04-15T13:54:48;9.20;99.90
24374;DHT22;12498;50.880;12.096;2023-04-15T13:57:13;9.20;99.90
24374;DHT22;12498;50.880;12.096;2023-04-15T13:59:39;9.20;99.90
24374;DHT22;12498;50.880;12.096;2023-04-15T14:02:05;9.30;99.90
24374;DHT22;12498;50.880;12.096;2023-04-15T14:04:31;9.10;99.90
24374;DHT22;12498;50.880;12.096;2023-04-15T14:06:57;9.60;99.90
24374;DHT22;12498;50.880;12.096;2023-04-15T14:09:23;9.40;99.90
24374;DHT22;12498;50.880;12.096;2023-04-15T14:11:49;9.20;99.90
24374;DHT22;12498;50.880;12.096;2023-04-15T14:14:15;9.40;99.90
24374;DHT22;12498;50.880;12.096;2023-04-15T14:16:40;9.50;99.90
24374;DHT22;12498;50.880;12.096;2023-04-15T14:19:06;9.50;99.90
24374;DHT22;12498;50.880;12.096;2023-04-15T14:21:32;9.60;99.90
24374;DHT22;12498;50.880;12.096;2023-04-15T14:23:58;9.60;99.90
24374;DHT22;12498;50.880;12.096;2023-04-15T14:26:23;9.60;99.90
24374;DHT22;12498;50.880;12.096;2023-04-15T14:28:49;9.50;99.90
24374;DHT22;12498;50.880;12.096;2023-04-15T14:31:15;9.60;99.90
24374;DHT22;12498;50.880;12.096;2023-04-15T14:33:41;9.60;99.90
24374;DHT22;12498;50.880;12.096;2023-04-15T14:36:08;9.50;99.90
24374;DHT22;12498;50.880;12.096;2023-04-15T14:38:34;9.40;99.90
24374;DHT22;12498;50.880;12.096;2023-04-15T14:41:03;9.60;99.90
24374;DHT22;12498;50.880;12.096;2023-04-15T14:43:29;9.60;99.90
24374;DHT22;12498;50.880;12.096;2023-04-15T14:45:54;9.60;99.90
24374;DHT22;12498;50.880;12.096;2023-04-15T14:48:20;9.70;99.90
24374;DHT22;12498;50.880;12.096;2023-04-15T14:50:46;9.70;99.90
24374;DHT22;12498;50.880;12.096;2023-04-15T14:53:11;9.70;99.90
24374;DHT22;12498;50.880;12.096;2023-04-15T14:55:37;9.70;99.90
24374;DHT22;12498;50.880;12.096;2023-04-15T14:58:03;9.70;99.90
24374;DHT22;12498;50.880;12.096;2023-04-15T15:00:28;9.70;99.90
24374;DHT22;12498;50.880;12.096;2023-04-15T15:02:54;9.60;99.90
24374;DHT22;12498;50.880;12.096;2023-04-15T15:05:21;9.60;99.90
24374;DHT22;12498;50.880;12.096;2023-04-15T15:07:46;9.60;99.90
24374;DHT22;12498;50.880;12.096;2023-04-15T15:10:12;9.60;99.90
24374;DHT22;12498;50.880;12.096;2023-04-15T15:12:38;9.60;99.90
24374;DHT22;12498;50.880;12.096;2023-04-15T15:15:04;9.60;99.90
24374;DHT22;12498;50.880;12.096;2023-04-15T15:17:31;9.70;99.90
24374;DHT22;12498;50.880;12.096;2023-04-15T15:19:57;9.70;99.90
24374;DHT22;12498;50.880;12.096;2023-04-15T15:22:22;9.80;99.90
24374;DHT22;12498;50.880;12.096;2023-04-15T15:24:48;9.90;99.90
24374;DHT22;12498;50.880;12.096;2023-04-15T15:27:14;9.90;99.90
24374;DHT22;12498;50.880;12.096;2023-04-15T15:29:40;9.70;99.90
24374;DHT22;12498;50.880;12.096;2023-04-15T15:32:06;9.90;99.90
24374;DHT22;12498;50.880;12.096;2023-04-15T15:34:31;9.90;99.90
24374;DHT22;12498;50.880;12.096;2023-04-15T15:36:57;9.90;99.90
24374;DHT22;12498;50.880;12.096;2023-04-15T15:39:23;9.90;99.90
24374;DHT22;12498;50.880;12.096;2023-04-15T15:41:49;10.00;99.90
24374;DHT22;12498;50.880;12.096;2023-04-15T15:44:14;10.00;99.90
24374;DHT22;12498;50.880;12.096;2023-04-15T15:46:40;10.20;99.90
24374;DHT22;12498;50.880;12.096;2023-04-15T15:49:06;10.10;99.90
24374;DHT22;12498;50.880;12.096;2023-04-15T15:51:32;10.30;99.90
24374;DHT22;12498;50.880;12.096;2023-04-15T15:56:26;10.30;99.90
24374;DHT22;12498;50.880;12.096;2023-04-15T15:58:52;10.50;99.90
24374;DHT22;12498;50.880;12.096;2023-04-15T16:01:18;10.50;99.90
24374;DHT22;12498;50.880;12.096;2023-04-15T16:03:43;11.00;99.90
24374;DHT22;12498;50.880;12.096;2023-04-15T16:06:09;10.50;99.90
24374;DHT22;12498;50.880;12.096;2023-04-15T16:08:34;10.30;99.90